Terminal Aerodrome Forecast
Issued by NWS

Home | Current Version | Previous Version | Graphics & Text | Print | Product List | Glossary On
Versions: 1 2 3 4 5 6 7 8 9 10 11 12 13 14 15 16 17 18
536
FTUS42 KMHX 202358
TAFOAJ
TAF
KOAJ 202358Z 2100/2124 00000KT 5SM BR SCT040
      TEMPO 2100/2102 1SM BR
     FM210200 00000KT 1SM BR BKN003
     FM210500 00000KT 1/2SM FG BKN003
     FM211300 VRB03KT 3SM BR BKN003
     FM211800 16005KT 4SM SHRA SCT005 BKN015
      AMD LTD TO CLD VIS AND WIND=

USA.gov is the U.S. government's official web portal to all federal, state and local government web resources and services.